sensor_id;sensor_type;location;lat;lon;timestamp;temperature;humidity
66401;HTU21D;53211;45.040;38.788;2022-11-20T00:01:09;10.72;95.69
66401;HTU21D;53211;45.040;38.788;2022-11-20T00:03:35;10.58;95.68
66401;HTU21D;53211;45.040;38.788;2022-11-20T00:06:03;10.50;95.73
66401;HTU21D;53211;45.040;38.788;2022-11-20T00:08:29;10.42;95.80
66401;HTU21D;53211;45.040;38.788;2022-11-20T00:10:55;10.37;95.96
66401;HTU21D;53211;45.040;38.788;2022-11-20T00:13:21;10.31;95.84
66401;HTU21D;53211;45.040;38.788;2022-11-20T00:15:47;10.28;96.01
66401;HTU21D;53211;45.040;38.788;2022-11-20T00:18:13;10.25;95.73
66401;HTU21D;53211;45.040;38.788;2022-11-20T00:20:40;10.18;95.65
66401;HTU21D;53211;45.040;38.788;2022-11-20T00:23:06;10.12;95.59
66401;HTU21D;53211;45.040;38.788;2022-11-20T00:25:34;10.07;95.52
66401;HTU21D;53211;45.040;38.788;2022-11-20T00:28:01;10.00;95.43
66401;HTU21D;53211;45.040;38.788;2022-11-20T00:30:27;9.97;95.46
66401;HTU21D;53211;45.040;38.788;2022-11-20T00:32:53;9.91;95.52
66401;HTU21D;53211;45.040;38.788;2022-11-20T00:35:18;9.86;95.43
66401;HTU21D;53211;45.040;38.788;2022-11-20T00:37:44;9.82;95.43
66401;HTU21D;53211;45.040;38.788;2022-11-20T00:40:11;9.77;95.36
66401;HTU21D;53211;45.040;38.788;2022-11-20T00:42:37;9.71;95.35
66401;HTU21D;53211;45.040;38.788;2022-11-20T00:45:03;9.69;95.31
66401;HTU21D;53211;45.040;38.788;2022-11-20T00:47:29;9.62;95.22
66401;HTU21D;53211;45.040;38.788;2022-11-20T00:49:55;9.57;95.23
66401;HTU21D;53211;45.040;38.788;2022-11-20T00:52:21;9.53;95.19
66401;HTU21D;53211;45.040;38.788;2022-11-20T00:54:47;9.47;95.21
66401;HTU21D;53211;45.040;38.788;2022-11-20T00:57:13;9.41;95.18
66401;HTU21D;53211;45.040;38.788;2022-11-20T00:59:39;9.37;95.20
66401;HTU21D;53211;45.040;38.788;2022-11-20T01:02:05;9.33;95.31
66401;HTU21D;53211;45.040;38.788;2022-11-20T01:04:31;9.30;95.46
66401;HTU21D;53211;45.040;38.788;2022-11-20T01:06:57;9.27;95.29
66401;HTU21D;53211;45.040;38.788;2022-11-20T01:09:22;9.24;95.15
66401;HTU21D;53211;45.040;38.788;2022-11-20T01:11:49;9.20;95.40
66401;HTU21D;53211;45.040;38.788;2022-11-20T01:14:17;9.17;95.84
66401;HTU21D;53211;45.040;38.788;2022-11-20T01:16:46;9.16;95.33
66401;HTU21D;53211;45.040;38.788;2022-11-20T01:19:18;9.12;95.14
66401;HTU21D;53211;45.040;38.788;2022-11-20T01:21:46;9.07;95.01
66401;HTU21D;53211;45.040;38.788;2022-11-20T01:24:15;9.04;94.98
66401;HTU21D;53211;45.040;38.788;2022-11-20T01:26:43;9.00;95.03
66401;HTU21D;53211;45.040;38.788;2022-11-20T01:29:15;8.97;94.93
66401;HTU21D;53211;45.040;38.788;2022-11-20T01:31:42;8.95;95.01
66401;HTU21D;53211;45.040;38.788;2022-11-20T01:34:13;8.94;94.96
66401;HTU21D;53211;45.040;38.788;2022-11-20T01:36:41;8.91;94.90
66401;HTU21D;53211;45.040;38.788;2022-11-20T01:39:26;8.89;94.82
66401;HTU21D;53211;45.040;38.788;2022-11-20T01:41:54;8.86;94.85
66401;HTU21D;53211;45.040;38.788;2022-11-20T01:44:57;8.80;94.79
66401;HTU21D;53211;45.040;38.788;2022-11-20T01:50:12;8.75;94.86
66401;HTU21D;53211;45.040;38.788;2022-11-20T01:52:47;8.75;94.95
66401;HTU21D;53211;45.040;38.788;2022-11-20T01:55:23;8.73;94.78
66401;HTU21D;53211;45.040;38.788;2022-11-20T01:57:51;8.73;94.69
66401;HTU21D;53211;45.040;38.788;2022-11-20T02:00:19;8.72;94.71
66401;HTU21D;53211;45.040;38.788;2022-11-20T02:02:53;8.71;94.67
66401;HTU21D;53211;45.040;38.788;2022-11-20T02:08:27;8.67;94.51
66401;HTU21D;53211;45.040;38.788;2022-11-20T02:10:54;8.64;94.49
66401;HTU21D;53211;45.040;38.788;2022-11-20T02:13:20;8.63;94.50
66401;HTU21D;53211;45.040;38.788;2022-11-20T02:16:15;8.58;95.17
66401;HTU21D;53211;45.040;38.788;2022-11-20T02:18:44;8.58;94.63
66401;HTU21D;53211;45.040;38.788;2022-11-20T02:21:22;8.55;94.42
66401;HTU21D;53211;45.040;38.788;2022-11-20T02:26:20;8.47;94.27
66401;HTU21D;53211;45.040;38.788;2022-11-20T02:28:46;8.46;94.35
66401;HTU21D;53211;45.040;38.788;2022-11-20T02:31:12;8.43;94.55
66401;HTU21D;53211;45.040;38.788;2022-11-20T02:33:38;8.41;94.73
66401;HTU21D;53211;45.040;38.788;2022-11-20T02:36:08;8.42;94.45
66401;HTU21D;53211;45.040;38.788;2022-11-20T02:38:37;8.41;94.47
66401;HTU21D;53211;45.040;38.788;2022-11-20T02:41:03;8.39;94.43
66401;HTU21D;53211;45.040;38.788;2022-11-20T02:43:29;8.38;95.13
66401;HTU21D;53211;45.040;38.788;2022-11-20T02:45:55;8.38;94.59
66401;HTU21D;53211;45.040;38.788;2022-11-20T02:48:21;8.41;94.38
66401;HTU21D;53211;45.040;38.788;2022-11-20T02:50:47;8.39;94.46
66401;HTU21D;53211;45.040;38.788;2022-11-20T02:53:13;8.42;94.51
66401;HTU21D;53211;45.040;38.788;2022-11-20T02:55:39;8.44;94.43
66401;HTU21D;53211;45.040;38.788;2022-11-20T02:58:05;8.44;94.39
66401;HTU21D;53211;45.040;38.788;2022-11-20T03:00:31;8.46;94.35
66401;HTU21D;53211;45.040;38.788;2022-11-20T03:02:57;8.47;94.71
66401;HTU21D;53211;45.040;38.788;2022-11-20T03:05:23;8.48;94.53
66401;HTU21D;53211;45.040;38.788;2022-11-20T03:07:49;8.48;94.30
66401;HTU21D;53211;45.040;38.788;2022-11-20T03:10:15;8.48;94.27
66401;HTU21D;53211;45.040;38.788;2022-11-20T03:12:41;8.48;94.14
66401;HTU21D;53211;45.040;38.788;2022-11-20T03:15:07;8.47;94.07
66401;HTU21D;53211;45.040;38.788;2022-11-20T03:17:33;8.50;94.40
66401;HTU21D;53211;45.040;38.788;2022-11-20T03:20:00;8.58;94.65
66401;HTU21D;53211;45.040;38.788;2022-11-20T03:22:29;8.63;94.43
66401;HTU21D;53211;45.040;38.788;2022-11-20T03:24:55;8.67;94.40
66401;HTU21D;53211;45.040;38.788;2022-11-20T03:27:21;8.75;94.60
66401;HTU21D;53211;45.040;38.788;2022-11-20T03:29:47;8.83;94.72
66401;HTU21D;53211;45.040;38.788;2022-11-20T03:32:13;8.93;94.82
66401;HTU21D;53211;45.040;38.788;2022-11-20T03:34:39;9.00;94.56
66401;HTU21D;53211;45.040;38.788;2022-11-20T03:37:06;9.05;94.24
66401;HTU21D;53211;45.040;38.788;2022-11-20T03:39:32;9.06;94.08
66401;HTU21D;53211;45.040;38.788;2022-11-20T03:41:57;9.06;94.07
66401;HTU21D;53211;45.040;38.788;2022-11-20T03:44:23;9.09;94.05
66401;HTU21D;53211;45.040;38.788;2022-11-20T03:46:49;9.09;94.04
66401;HTU21D;53211;45.040;38.788;2022-11-20T03:49:15;9.12;94.01
66401;HTU21D;53211;45.040;38.788;2022-11-20T03:51:41;9.17;93.85
66401;HTU21D;53211;45.040;38.788;2022-11-20T03:54:08;9.19;93.82
66401;HTU21D;53211;45.040;38.788;2022-11-20T03:56:36;9.19;93.74
66401;HTU21D;53211;45.040;38.788;2022-11-20T03:59:03;9.19;93.72
66401;HTU21D;53211;45.040;38.788;2022-11-20T04:01:34;9.17;93.77
66401;HTU21D;53211;45.040;38.788;2022-11-20T04:04:01;9.17;93.86
66401;HTU21D;53211;45.040;38.788;2022-11-20T04:06:30;9.18;93.88
66401;HTU21D;53211;45.040;38.788;2022-11-20T04:08:57;9.20;93.76
66401;HTU21D;53211;45.040;38.788;2022-11-20T04:11:26;9.21;93.54
66401;HTU21D;53211;45.040;38.788;2022-11-20T04:13:55;9.18;93.40
66401;HTU21D;53211;45.040;38.788;2022-11-20T04:16:22;9.15;93.34
66401;HTU21D;53211;45.040;38.788;2022-11-20T04:18:57;9.12;93.40
66401;HTU21D;53211;45.040;38.788;2022-11-20T04:21:23;9.10;93.37
66401;HTU21D;53211;45.040;38.788;2022-11-20T04:23:50;9.07;93.39
66401;HTU21D;53211;45.040;38.788;2022-11-20T04:26:16;9.05;93.44
66401;HTU21D;53211;45.040;38.788;2022-11-20T04:28:42;9.04;93.52
66401;HTU21D;53211;45.040;38.788;2022-11-20T04:31:16;9.07;93.69
66401;HTU21D;53211;45.040;38.788;2022-11-20T04:33:43;9.14;93.82
66401;HTU21D;53211;45.040;38.788;2022-11-20T04:36:14;9.19;94.09
66401;HTU21D;53211;45.040;38.788;2022-11-20T04:38:41;9.24;93.79
66401;HTU21D;53211;45.040;38.788;2022-11-20T04:41:09;9.29;93.74
66401;HTU21D;53211;45.040;38.788;2022-11-20T04:43:38;9.33;93.69
66401;HTU21D;53211;45.040;38.788;2022-11-20T04:46:04;9.37;93.66
66401;HTU21D;53211;45.040;38.788;2022-11-20T04:48:30;9.41;93.55
66401;HTU21D;53211;45.040;38.788;2022-11-20T04:50:56;9.45;93.48
66401;HTU21D;53211;45.040;38.788;2022-11-20T04:53:23;9.48;93.49
66401;HTU21D;53211;45.040;38.788;2022-11-20T04:55:49;9.52;93.49
66401;HTU21D;53211;45.040;38.788;2022-11-20T04:58:15;9.56;93.47
66401;HTU21D;53211;45.040;38.788;2022-11-20T05:00:42;9.63;93.46
66401;HTU21D;53211;45.040;38.788;2022-11-20T05:03:07;9.67;93.42
66401;HTU21D;53211;45.040;38.788;2022-11-20T05:05:34;9.70;93.41
66401;HTU21D;53211;45.040;38.788;2022-11-20T05:08:00;9.75;93.41
66401;HTU21D;53211;45.040;38.788;2022-11-20T05:10:26;9.78;93.48
66401;HTU21D;53211;45.040;38.788;2022-11-20T05:12:53;9.84;93.56
66401;HTU21D;53211;45.040;38.788;2022-11-20T05:15:19;9.93;93.77
66401;HTU21D;53211;45.040;38.788;2022-11-20T05:17:51;10.04;93.89
66401;HTU21D;53211;45.040;38.788;2022-11-20T05:20:17;10.19;93.89
66401;HTU21D;53211;45.040;38.788;2022-11-20T05:22:43;10.31;93.87
66401;HTU21D;53211;45.040;38.788;2022-11-20T05:25:10;10.45;93.90
66401;HTU21D;53211;45.040;38.788;2022-11-20T05:27:36;10.58;93.96
66401;HTU21D;53211;45.040;38.788;2022-11-20T05:30:03;10.73;94.30
66401;HTU21D;53211;45.040;38.788;2022-11-20T05:32:30;10.88;93.95
66401;HTU21D;53211;45.040;38.788;2022-11-20T05:34:56;11.01;93.94
66401;HTU21D;53211;45.040;38.788;2022-11-20T05:37:21;11.19;93.83
66401;HTU21D;53211;45.040;38.788;2022-11-20T05:39:47;11.32;93.65
66401;HTU21D;53211;45.040;38.788;2022-11-20T05:42:13;11.46;93.64
66401;HTU21D;53211;45.040;38.788;2022-11-20T05:45:01;11.58;93.59
66401;HTU21D;53211;45.040;38.788;2022-11-20T05:47:31;11.72;93.66
66401;HTU21D;53211;45.040;38.788;2022-11-20T05:50:01;11.83;93.56
66401;HTU21D;53211;45.040;38.788;2022-11-20T05:52:30;11.91;93.53
66401;HTU21D;53211;45.040;38.788;2022-11-20T05:54:57;11.99;93.37
66401;HTU21D;53211;45.040;38.788;2022-11-20T05:57:22;12.05;93.51
66401;HTU21D;53211;45.040;38.788;2022-11-20T05:59:48;12.13;93.46
66401;HTU21D;53211;45.040;38.788;2022-11-20T06:02:14;12.18;93.46
66401;HTU21D;53211;45.040;38.788;2022-11-20T06:04:40;12.25;93.60
66401;HTU21D;53211;45.040;38.788;2022-11-20T06:07:06;12.33;93.71
66401;HTU21D;53211;45.040;38.788;2022-11-20T06:09:33;12.41;93.77
66401;HTU21D;53211;45.040;38.788;2022-11-20T06:12:01;12.53;93.75
66401;HTU21D;53211;45.040;38.788;2022-11-20T06:14:28;12.67;93.86
66401;HTU21D;53211;45.040;38.788;2022-11-20T06:16:54;12.84;93.70
66401;HTU21D;53211;45.040;38.788;2022-11-20T06:19:21;12.99;93.91
66401;HTU21D;53211;45.040;38.788;2022-11-20T06:21:48;13.11;93.40
66401;HTU21D;53211;45.040;38.788;2022-11-20T06:24:15;13.24;93.27
66401;HTU21D;53211;45.040;38.788;2022-11-20T06:26:41;13.32;93.11
66401;HTU21D;53211;45.040;38.788;2022-11-20T06:29:07;13.43;92.91
66401;HTU21D;53211;45.040;38.788;2022-11-20T06:31:34;13.51;92.80
66401;HTU21D;53211;45.040;38.788;2022-11-20T06:34:06;13.59;92.77
66401;HTU21D;53211;45.040;38.788;2022-11-20T06:36:33;13.67;92.71
66401;HTU21D;53211;45.040;38.788;2022-11-20T06:38:59;13.79;92.59
66401;HTU21D;53211;45.040;38.788;2022-11-20T06:41:25;13.86;92.46
66401;HTU21D;53211;45.040;38.788;2022-11-20T06:43:51;13.94;92.32
66401;HTU21D;53211;45.040;38.788;2022-11-20T06:46:19;13.99;92.27
66401;HTU21D;53211;45.040;38.788;2022-11-20T06:48:46;14.06;92.29
66401;HTU21D;53211;45.040;38.788;2022-11-20T06:51:12;14.10;92.18
66401;HTU21D;53211;45.040;38.788;2022-11-20T06:53:39;14.13;92.11
66401;HTU21D;53211;45.040;38.788;2022-11-20T06:56:06;14.18;92.14
66401;HTU21D;53211;45.040;38.788;2022-11-20T06:58:33;14.23;92.09
66401;HTU21D;53211;45.040;38.788;2022-11-20T07:01:02;14.28;92.06
66401;HTU21D;53211;45.040;38.788;2022-11-20T07:03:31;14.32;92.14
66401;HTU21D;53211;45.040;38.788;2022-11-20T07:05:58;14.36;92.03
66401;HTU21D;53211;45.040;38.788;2022-11-20T07:08:25;14.40;91.93
66401;HTU21D;53211;45.040;38.788;2022-11-20T07:10:51;14.42;91.86
66401;HTU21D;53211;45.040;38.788;2022-11-20T07:13:18;14.44;91.86
66401;HTU21D;53211;45.040;38.788;2022-11-20T07:15:44;14.48;91.92
66401;HTU21D;53211;45.040;38.788;2022-11-20T07:18:10;14.49;91.90
66401;HTU21D;53211;45.040;38.788;2022-11-20T07:20:36;14.51;91.88
66401;HTU21D;53211;45.040;38.788;2022-11-20T07:23:02;14.53;91.82
66401;HTU21D;53211;45.040;38.788;2022-11-20T07:25:28;14.55;91.86
66401;HTU21D;53211;45.040;38.788;2022-11-20T07:27:58;14.58;91.92
66401;HTU21D;53211;45.040;38.788;2022-11-20T07:30:26;14.60;91.84
66401;HTU21D;53211;45.040;38.788;2022-11-20T07:32:54;14.66;91.85
66401;HTU21D;53211;45.040;38.788;2022-11-20T07:35:20;14.70;91.81
66401;HTU21D;53211;45.040;38.788;2022-11-20T07:37:47;14.73;91.66
66401;HTU21D;53211;45.040;38.788;2022-11-20T07:40:14;14.74;91.51
66401;HTU21D;53211;45.040;38.788;2022-11-20T07:42:51;14.75;91.43
66401;HTU21D;53211;45.040;38.788;2022-11-20T07:45:18;14.75;91.43
66401;HTU21D;53211;45.040;38.788;2022-11-20T07:47:44;14.73;91.46
66401;HTU21D;53211;45.040;38.788;2022-11-20T07:50:11;14.74;91.50
66401;HTU21D;53211;45.040;38.788;2022-11-20T07:52:37;14.74;91.51
66401;HTU21D;53211;45.040;38.788;2022-11-20T07:55:03;14.79;91.52
66401;HTU21D;53211;45.040;38.788;2022-11-20T07:57:30;14.83;91.52
66401;HTU21D;53211;45.040;38.788;2022-11-20T07:59:56;14.89;91.44
66401;HTU21D;53211;45.040;38.788;2022-11-20T08:02:22;14.95;91.37
66401;HTU21D;53211;45.040;38.788;2022-11-20T08:04:48;15.00;91.33
66401;HTU21D;53211;45.040;38.788;2022-11-20T08:07:14;15.06;91.29
66401;HTU21D;53211;45.040;38.788;2022-11-20T08:09:41;15.13;91.20
66401;HTU21D;53211;45.040;38.788;2022-11-20T08:12:07;15.18;91.12
66401;HTU21D;53211;45.040;38.788;2022-11-20T08:14:51;15.23;91.04
66401;HTU21D;53211;45.040;38.788;2022-11-20T08:17:17;15.26;91.00
66401;HTU21D;53211;45.040;38.788;2022-11-20T08:19:43;15.27;90.98
66401;HTU21D;53211;45.040;38.788;2022-11-20T08:22:09;15.31;91.09
66401;HTU21D;53211;45.040;38.788;2022-11-20T08:24:35;15.38;91.07
66401;HTU21D;53211;45.040;38.788;2022-11-20T08:27:01;15.46;90.90
66401;HTU21D;53211;45.040;38.788;2022-11-20T08:29:27;15.52;90.77
66401;HTU21D;53211;45.040;38.788;2022-11-20T08:31:53;15.55;90.63
66401;HTU21D;53211;45.040;38.788;2022-11-20T08:34:19;15.60;90.54
66401;HTU21D;53211;45.040;38.788;2022-11-20T08:36:45;15.62;90.63
66401;HTU21D;53211;45.040;38.788;2022-11-20T08:39:12;15.67;90.67
66401;HTU21D;53211;45.040;38.788;2022-11-20T08:41:38;15.71;90.72
66401;HTU21D;53211;45.040;38.788;2022-11-20T08:44:06;15.78;90.69
66401;HTU21D;53211;45.040;38.788;2022-11-20T08:46:34;15.85;90.65
66401;HTU21D;53211;45.040;38.788;2022-11-20T08:49:06;15.92;90.57
66401;HTU21D;53211;45.040;38.788;2022-11-20T08:51:32;16.01;90.58
66401;HTU21D;53211;45.040;38.788;2022-11-20T08:53:58;16.12;90.51
66401;HTU21D;53211;45.040;38.788;2022-11-20T08:56:24;16.20;90.28
66401;HTU21D;53211;45.040;38.788;2022-11-20T08:58:51;16.28;90.18
66401;HTU21D;53211;45.040;38.788;2022-11-20T09:01:19;16.35;90.05
66401;HTU21D;53211;45.040;38.788;2022-11-20T09:03:46;16.40;90.03
66401;HTU21D;53211;45.040;38.788;2022-11-20T09:06:12;16.48;90.02
66401;HTU21D;53211;45.040;38.788;2022-11-20T09:08:38;16.55;89.89
66401;HTU21D;53211;45.040;38.788;2022-11-20T09:11:05;16.58;89.95
66401;HTU21D;53211;45.040;38.788;2022-11-20T09:13:32;16.70;89.94
66401;HTU21D;53211;45.040;38.788;2022-11-20T09:16:04;16.79;89.81
66401;HTU21D;53211;45.040;38.788;2022-11-20T09:18:31;16.90;89.79
66401;HTU21D;53211;45.040;38.788;2022-11-20T09:20:59;17.03;89.57
66401;HTU21D;53211;45.040;38.788;2022-11-20T09:23:26;17.15;89.34
66401;HTU21D;53211;45.040;38.788;2022-11-20T09:25:52;17.28;89.20
66401;HTU21D;53211;45.040;38.788;2022-11-20T09:28:21;17.39;89.00
66401;HTU21D;53211;45.040;38.788;2022-11-20T09:30:47;17.51;88.94
66401;HTU21D;53211;45.040;38.788;2022-11-20T09:33:13;17.62;88.64
66401;HTU21D;53211;45.040;38.788;2022-11-20T09:35:39;17.68;88.39
66401;HTU21D;53211;45.040;38.788;2022-11-20T09:38:09;17.78;88.49
66401;HTU21D;53211;45.040;38.788;2022-11-20T09:40:39;17.91;88.41
66401;HTU21D;53211;45.040;38.788;2022-11-20T09:46:20;18.08;87.81
66401;HTU21D;53211;45.040;38.788;2022-11-20T09:51:50;18.22;87.67
66401;HTU21D;53211;45.040;38.788;2022-11-20T09:54:21;18.24;87.41
66401;HTU21D;53211;45.040;38.788;2022-11-20T09:57:15;18.21;87.28
66401;HTU21D;53211;45.040;38.788;2022-11-20T09:59:45;18.15;87.22
66401;HTU21D;53211;45.040;38.788;2022-11-20T10:02:40;18.07;86.99
66401;HTU21D;53211;45.040;38.788;2022-11-20T10:05:12;17.93;87.28
66401;HTU21D;53211;45.040;38.788;2022-11-20T10:07:42;17.83;87.42
66401;HTU21D;53211;45.040;38.788;2022-11-20T10:10:20;17.72;87.61
66401;HTU21D;53211;45.040;38.788;2022-11-20T10:26:01;17.24;88.65
66401;HTU21D;53211;45.040;38.788;2022-11-20T10:31:25;17.22;89.17
66401;HTU21D;53211;45.040;38.788;2022-11-20T10:33:54;17.34;89.70
66401;HTU21D;53211;45.040;38.788;2022-11-20T10:36:28;17.52;89.90
66401;HTU21D;53211;45.040;38.788;2022-11-20T10:39:03;17.76;89.83
66401;HTU21D;53211;45.040;38.788;2022-11-20T10:41:37;18.07;89.54
66401;HTU21D;53211;45.040;38.788;2022-11-20T10:44:22;18.39;89.21
66401;HTU21D;53211;45.040;38.788;2022-11-20T10:47:16;18.83;88.54
66401;HTU21D;53211;45.040;38.788;2022-11-20T10:49:49;19.15;87.37
66401;HTU21D;53211;45.040;38.788;2022-11-20T10:58:16;19.50;86.32
66401;HTU21D;53211;45.040;38.788;2022-11-20T11:00:45;19.56;86.66
66401;HTU21D;53211;45.040;38.788;2022-11-20T11:06:10;19.61;86.61
66401;HTU21D;53211;45.040;38.788;2022-11-20T11:08:39;19.69;86.69
66401;HTU21D;53211;45.040;38.788;2022-11-20T11:11:33;19.79;86.64
66401;HTU21D;53211;45.040;38.788;2022-11-20T11:14:07;19.88;86.54
66401;HTU21D;53211;45.040;38.788;2022-11-20T11:16:33;19.91;86.25
66401;HTU21D;53211;45.040;38.788;2022-11-20T11:19:13;19.90;86.02
66401;HTU21D;53211;45.040;38.788;2022-11-20T11:21:49;19.86;86.12
66401;HTU21D;53211;45.040;38.788;2022-11-20T11:26:57;19.86;86.22
66401;HTU21D;53211;45.040;38.788;2022-11-20T11:29:24;19.82;86.19
66401;HTU21D;53211;45.040;38.788;2022-11-20T11:32:07;19.81;86.44
66401;HTU21D;53211;45.040;38.788;2022-11-20T11:34:33;19.85;86.67
66401;HTU21D;53211;45.040;38.788;2022-11-20T11:37:00;19.94;86.80
66401;HTU21D;53211;45.040;38.788;2022-11-20T11:39:30;19.99;86.29
66401;HTU21D;53211;45.040;38.788;2022-11-20T11:41:58;20.00;86.46
66401;HTU21D;53211;45.040;38.788;2022-11-20T11:44:30;20.04;86.50
66401;HTU21D;53211;45.040;38.788;2022-11-20T11:52:51;20.00;86.02
66401;HTU21D;53211;45.040;38.788;2022-11-20T11:58:32;19.96;85.93
66401;HTU21D;53211;45.040;38.788;2022-11-20T12:06:44;19.89;85.93
66401;HTU21D;53211;45.040;38.788;2022-11-20T12:09:11;19.91;85.98
66401;HTU21D;53211;45.040;38.788;2022-11-20T12:11:46;19.90;85.87
66401;HTU21D;53211;45.040;38.788;2022-11-20T12:14:20;19.87;85.93
66401;HTU21D;53211;45.040;38.788;2022-11-20T12:16:50;19.84;85.96
66401;HTU21D;53211;45.040;38.788;2022-11-20T12:19:18;19.84;85.92
66401;HTU21D;53211;45.040;38.788;2022-11-20T12:27:41;19.76;85.92
66401;HTU21D;53211;45.040;38.788;2022-11-20T12:30:12;19.73;85.92
66401;HTU21D;53211;45.040;38.788;2022-11-20T12:35:32;19.66;86.12
66401;HTU21D;53211;45.040;38.788;2022-11-20T12:43:26;19.82;85.31
66401;HTU21D;53211;45.040;38.788;2022-11-20T12:46:31;19.97;84.33
66401;HTU21D;53211;45.040;38.788;2022-11-20T12:52:37;20.28;83.89
66401;HTU21D;53211;45.040;38.788;2022-11-20T12:55:14;20.40;82.93
66401;HTU21D;53211;45.040;38.788;2022-11-20T13:00:31;20.58;81.97
66401;HTU21D;53211;45.040;38.788;2022-11-20T13:05:50;20.78;80.02
66401;HTU21D;53211;45.040;38.788;2022-11-20T13:08:31;0.00;79.36
66401;HTU21D;53211;45.040;38.788;2022-11-20T13:11:34;20.96;78.27
66401;HTU21D;53211;45.040;38.788;2022-11-20T13:16:58;21.01;78.84
66401;HTU21D;53211;45.040;38.788;2022-11-20T13:19:26;21.02;77.80
66401;HTU21D;53211;45.040;38.788;2022-11-20T13:21:54;21.01;76.70
66401;HTU21D;53211;45.040;38.788;2022-11-20T13:29:26;20.90;77.39
66401;HTU21D;53211;45.040;38.788;2022-11-20T13:32:05;20.81;77.31
66401;HTU21D;53211;45.040;38.788;2022-11-20T13:34:32;20.74;75.63
66401;HTU21D;53211;45.040;38.788;2022-11-20T13:36:59;20.68;76.68
66401;HTU21D;53211;45.040;38.788;2022-11-20T13:39:35;20.62;76.78
66401;HTU21D;53211;45.040;38.788;2022-11-20T13:44:44;20.43;76.47
66401;HTU21D;53211;45.040;38.788;2022-11-20T13:47:38;20.28;76.41
66401;HTU21D;53211;45.040;38.788;2022-11-20T13:50:14;20.20;76.24
66401;HTU21D;53211;45.040;38.788;2022-11-20T13:53:01;20.14;76.22
66401;HTU21D;53211;45.040;38.788;2022-11-20T13:55:53;20.06;75.70
66401;HTU21D;53211;45.040;38.788;2022-11-20T14:01:06;20.00;75.70
66401;HTU21D;53211;45.040;38.788;2022-11-20T14:03:34;19.92;74.60
66401;HTU21D;53211;45.040;38.788;2022-11-20T14:06:05;19.82;75.86
66401;HTU21D;53211;45.040;38.788;2022-11-20T14:08:41;19.70;75.73
66401;HTU21D;53211;45.040;38.788;2022-11-20T14:11:35;19.60;74.54
66401;HTU21D;53211;45.040;38.788;2022-11-20T14:14:13;19.57;74.44
66401;HTU21D;53211;45.040;38.788;2022-11-20T14:16:40;19.52;75.47
66401;HTU21D;53211;45.040;38.788;2022-11-20T14:19:27;19.44;74.47
66401;HTU21D;53211;45.040;38.788;2022-11-20T14:22:21;19.43;72.71
66401;HTU21D;53211;45.040;38.788;2022-11-20T14:24:49;19.47;72.93
66401;HTU21D;53211;45.040;38.788;2022-11-20T14:27:25;19.52;71.74
66401;HTU21D;53211;45.040;38.788;2022-11-20T14:29:52;19.55;71.31
66401;HTU21D;53211;45.040;38.788;2022-11-20T14:32:21;19.58;71.34
66401;HTU21D;53211;45.040;38.788;2022-11-20T14:35:02;19.59;71.10
66401;HTU21D;53211;45.040;38.788;2022-11-20T14:37:31;19.59;71.48
66401;HTU21D;53211;45.040;38.788;2022-11-20T14:39:59;19.60;71.41
66401;HTU21D;53211;45.040;38.788;2022-11-20T14:42:27;19.57;71.54
66401;HTU21D;53211;45.040;38.788;2022-11-20T14:45:00;19.54;71.16
66401;HTU21D;53211;45.040;38.788;2022-11-20T14:47:29;19.53;71.32
66401;HTU21D;53211;45.040;38.788;2022-11-20T14:49:57;19.48;71.41
66401;HTU21D;53211;45.040;38.788;2022-11-20T14:52:26;19.47;71.14
66401;HTU21D;53211;45.040;38.788;2022-11-20T14:54:54;19.44;71.03
66401;HTU21D;53211;45.040;38.788;2022-11-20T14:57:26;19.39;72.12
66401;HTU21D;53211;45.040;38.788;2022-11-20T15:00:20;19.35;71.75
66401;HTU21D;53211;45.040;38.788;2022-11-20T15:02:48;19.30;71.66
66401;HTU21D;53211;45.040;38.788;2022-11-20T15:05:16;19.23;72.19
66401;HTU21D;53211;45.040;38.788;2022-11-20T15:07:45;19.18;72.19
66401;HTU21D;53211;45.040;38.788;2022-11-20T15:15:27;19.02;72.02
66401;HTU21D;53211;45.040;38.788;2022-11-20T15:17:55;18.99;71.08
66401;HTU21D;53211;45.040;38.788;2022-11-20T15:20:25;18.97;71.47
66401;HTU21D;53211;45.040;38.788;2022-11-20T15:22:52;18.96;71.11
66401;HTU21D;53211;45.040;38.788;2022-11-20T15:25:18;18.97;70.95
66401;HTU21D;53211;45.040;38.788;2022-11-20T15:27:45;18.97;0.00
66401;HTU21D;53211;45.040;38.788;2022-11-20T15:30:19;18.96;71.14
66401;HTU21D;53211;45.040;38.788;2022-11-20T15:32:46;18.94;71.06
66401;HTU21D;53211;45.040;38.788;2022-11-20T15:35:13;18.92;71.32
66401;HTU21D;53211;45.040;38.788;2022-11-20T15:37:39;18.89;71.44
66401;HTU21D;53211;45.040;38.788;2022-11-20T15:40:06;18.84;71.82
66401;HTU21D;53211;45.040;38.788;2022-11-20T15:42:33;18.80;71.83
66401;HTU21D;53211;45.040;38.788;2022-11-20T15:44:59;18.76;71.74
66401;HTU21D;53211;45.040;38.788;2022-11-20T15:47:29;18.71;70.37
66401;HTU21D;53211;45.040;38.788;2022-11-20T15:49:55;18.71;71.29
66401;HTU21D;53211;45.040;38.788;2022-11-20T15:52:22;18.72;70.76
66401;HTU21D;53211;45.040;38.788;2022-11-20T15:54:48;18.71;71.32
66401;HTU21D;53211;45.040;38.788;2022-11-20T15:57:14;18.68;70.90
66401;HTU21D;53211;45.040;38.788;2022-11-20T15:59:40;18.65;71.20
66401;HTU21D;53211;45.040;38.788;2022-11-20T16:02:14;18.62;70.94
66401;HTU21D;53211;45.040;38.788;2022-11-20T16:04:40;18.57;71.34
66401;HTU21D;53211;45.040;38.788;2022-11-20T16:07:07;18.50;71.51
66401;HTU21D;53211;45.040;38.788;2022-11-20T16:09:33;0.00;71.54
66401;HTU21D;53211;45.040;38.788;2022-11-20T16:11:59;18.36;71.36
66401;HTU21D;53211;45.040;38.788;2022-11-20T16:14:31;18.27;71.20
66401;HTU21D;53211;45.040;38.788;2022-11-20T16:17:15;18.13;71.12
66401;HTU21D;53211;45.040;38.788;2022-11-20T16:20:01;18.02;71.71
66401;HTU21D;53211;45.040;38.788;2022-11-20T16:22:27;17.89;71.29
66401;HTU21D;53211;45.040;38.788;2022-11-20T16:24:53;17.79;72.31
66401;HTU21D;53211;45.040;38.788;2022-11-20T16:27:19;17.66;72.57
66401;HTU21D;53211;45.040;38.788;2022-11-20T16:29:45;17.52;72.67
66401;HTU21D;53211;45.040;38.788;2022-11-20T16:32:11;17.40;72.87
66401;HTU21D;53211;45.040;38.788;2022-11-20T16:34:37;17.31;72.94
66401;HTU21D;53211;45.040;38.788;2022-11-20T16:37:03;17.22;73.09
66401;HTU21D;53211;45.040;38.788;2022-11-20T16:39:29;17.14;73.31
66401;HTU21D;53211;45.040;38.788;2022-11-20T16:41:55;17.04;73.48
66401;HTU21D;53211;45.040;38.788;2022-11-20T16:44:21;16.94;73.55
66401;HTU21D;53211;45.040;38.788;2022-11-20T16:46:47;16.82;73.60
66401;HTU21D;53211;45.040;38.788;2022-11-20T16:49:13;16.71;73.73
66401;HTU21D;53211;45.040;38.788;2022-11-20T16:51:39;16.56;72.87
66401;HTU21D;53211;45.040;38.788;2022-11-20T16:54:08;16.43;73.84
66401;HTU21D;53211;45.040;38.788;2022-11-20T16:56:35;16.32;74.10